createdAt,value
2019-05-02T00:01:00.921Z,16.59
2019-05-02T00:03:55.182Z,16.59
2019-05-02T00:07:05.558Z,16.49
2019-05-02T00:09:52.971Z,16.42
2019-05-02T00:12:26.469Z,16.41
2019-05-02T00:15:05.411Z,16.42
2019-05-02T00:17:41.897Z,16.48
2019-05-02T00:20:15.282Z,16.54
2019-05-02T00:22:52.467Z,16.56
2019-05-02T00:25:23.164Z,16.56
2019-05-02T00:27:52.830Z,16.57
2019-05-02T00:30:23.074Z,16.57
2019-05-02T00:32:53.261Z,16.59
2019-05-02T00:35:24.110Z,16.57
2019-05-02T00:37:57.462Z,16.52
2019-05-02T00:40:27.821Z,16.50
2019-05-02T00:42:58.180Z,16.51
2019-05-02T00:45:28.985Z,16.51
2019-05-02T00:48:09.815Z,16.54
2019-05-02T00:50:40.682Z,16.54
2019-05-02T00:53:12.296Z,16.45
2019-05-02T00:55:46.108Z,16.46
2019-05-02T00:58:15.639Z,16.43
2019-05-02T01:01:07.606Z,16.46
2019-05-02T01:03:38.892Z,16.47
2019-05-02T01:06:13.955Z,16.42
2019-05-02T01:08:42.034Z,16.41
2019-05-02T01:11:12.002Z,16.39
2019-05-02T01:13:50.290Z,16.37
2019-05-02T01:22:17.272Z,16.20
2019-05-02T01:24:54.581Z,16.15
2019-05-02T01:28:00.193Z,16.20
2019-05-02T01:30:46.188Z,16.14
2019-05-02T01:33:28.125Z,16.09
2019-05-02T01:36:22.072Z,16.06
2019-05-02T01:38:54.040Z,16.02
2019-05-02T01:41:29.204Z,16.00
2019-05-02T01:46:46.718Z,15.96
2019-05-02T01:49:21.320Z,15.99
2019-05-02T01:51:49.332Z,16.02
2019-05-02T01:54:21.972Z,16.03
2019-05-02T01:56:51.845Z,16.03
2019-05-02T01:59:29.147Z,16.01
2019-05-02T02:01:57.910Z,15.99
2019-05-02T02:04:31.486Z,15.97
2019-05-02T02:07:06.776Z,15.90
2019-05-02T02:09:38.938Z,15.85
2019-05-02T02:12:09.831Z,15.81
2019-05-02T02:14:40.939Z,15.79
2019-05-02T02:17:15.468Z,15.73
2019-05-02T02:19:50.235Z,15.72
2019-05-02T02:22:39.343Z,15.68
2019-05-02T02:25:32.232Z,15.65
2019-05-02T02:28:02.274Z,15.59
2019-05-02T02:30:36.120Z,15.46
2019-05-02T02:34:32.642Z,15.49
2019-05-02T02:36:01.407Z,15.52
2019-05-02T02:51:37.330Z,15.61
2019-05-02T02:54:54.466Z,15.57
2019-05-02T02:57:31.917Z,15.66
2019-05-02T03:00:07.673Z,15.73
2019-05-02T03:02:35.766Z,15.78
2019-05-02T03:05:05.829Z,15.85
2019-05-02T03:07:36.023Z,15.92
2019-05-02T03:10:48.127Z,15.96
2019-05-02T03:14:09.588Z,16.01
2019-05-02T03:16:46.933Z,16.04
2019-05-02T03:19:21.465Z,16.06
2019-05-02T03:22:01.066Z,16.02
2019-05-02T03:27:53.101Z,16.08
2019-05-02T03:30:32.310Z,16.07
2019-05-02T03:33:27.500Z,16.11
2019-05-02T03:36:00.649Z,16.17
2019-05-02T03:38:36.311Z,16.23
2019-05-02T03:41:13.347Z,16.28
2019-05-02T03:43:45.472Z,16.29
2019-05-02T03:47:02.302Z,16.32
2019-05-02T03:49:29.639Z,16.35
2019-05-02T03:52:02.852Z,16.36
2019-05-02T03:54:32.448Z,16.37
2019-05-02T03:57:03.185Z,16.39
2019-05-02T03:59:38.738Z,16.40
2019-05-02T04:02:04.960Z,16.40
2019-05-02T04:04:35.985Z,16.42
2019-05-02T04:07:21.521Z,16.44
2019-05-02T04:10:01.708Z,16.48
2019-05-02T04:12:45.211Z,16.50
2019-05-02T04:15:35.176Z,16.44
2019-05-02T04:18:08.378Z,16.36
2019-05-02T04:20:43.497Z,16.37
2019-05-02T04:23:14.515Z,16.31
2019-05-02T04:25:48.949Z,16.31
2019-05-02T04:28:19.781Z,16.31
2019-05-02T04:30:51.318Z,16.32
2019-05-02T04:33:22.745Z,16.32
2019-05-02T04:35:52.458Z,16.28
2019-05-02T04:38:31.644Z,16.30
2019-05-02T04:40:58.969Z,16.34
2019-05-02T04:43:28.746Z,16.31
2019-05-02T04:46:00.191Z,16.30
2019-05-02T04:48:34.654Z,16.31
2019-05-02T04:51:10.116Z,16.32
2019-05-02T04:53:41.161Z,16.30
2019-05-02T04:56:07.125Z,16.25
2019-05-02T04:58:39.752Z,16.18
2019-05-02T05:01:06.347Z,16.14
2019-05-02T05:03:37.646Z,16.14
2019-05-02T05:06:11.914Z,16.12
2019-05-02T05:08:38.821Z,16.12
2019-05-02T05:11:09.186Z,16.11
2019-05-02T05:13:38.558Z,16.10
2019-05-02T05:16:14.866Z,16.12
2019-05-02T05:18:39.197Z,16.13
2019-05-02T05:21:10.682Z,16.14
2019-05-02T05:24:10.723Z,16.13
2019-05-02T05:26:43.014Z,16.14
2019-05-02T05:29:13.946Z,16.08
2019-05-02T05:31:43.915Z,16.08
2019-05-02T05:34:17.358Z,16.08
2019-05-02T05:36:48.163Z,16.09
2019-05-02T05:39:17.826Z,16.11
2019-05-02T05:41:52.353Z,16.08
2019-05-02T05:44:23.288Z,16.10
2019-05-02T05:46:51.724Z,16.09
2019-05-02T05:49:21.828Z,16.09
2019-05-02T05:51:54.554Z,16.09
2019-05-02T05:54:22.717Z,16.11
2019-05-02T05:56:52.507Z,16.06
2019-05-02T05:59:26.866Z,16.05
2019-05-02T06:01:53.239Z,16.06
2019-05-02T06:04:24.081Z,16.05
2019-05-02T06:06:58.382Z,16.07
2019-05-02T06:09:26.243Z,16.05
2019-05-02T06:11:56.677Z,16.01
2019-05-02T06:14:26.521Z,16.05
2019-05-02T06:16:56.203Z,16.09
2019-05-02T06:19:26.901Z,16.13
2019-05-02T06:21:57.562Z,16.17
2019-05-02T06:24:27.011Z,16.25
2019-05-02T06:26:56.437Z,16.29
2019-05-02T06:29:25.995Z,16.36
2019-05-02T06:31:56.945Z,16.43
2019-05-02T06:34:26.530Z,16.43
2019-05-02T06:36:55.918Z,16.44
2019-05-02T06:39:27.052Z,16.41
2019-05-02T06:41:57.495Z,16.42
2019-05-02T06:44:27.629Z,16.39
2019-05-02T06:46:59.130Z,16.33
2019-05-02T06:49:28.398Z,16.33
2019-05-02T06:51:57.842Z,16.33
2019-05-02T06:54:27.353Z,16.35
2019-05-02T06:56:58.192Z,16.39
2019-05-02T06:59:27.528Z,16.47
2019-05-02T07:01:58.760Z,16.54
2019-05-02T07:04:28.265Z,16.68
2019-05-02T07:06:59.589Z,16.73
2019-05-02T07:09:39.840Z,16.72
2019-05-02T07:12:01.563Z,16.77
2019-05-02T07:14:31.394Z,16.74
2019-05-02T07:17:18.459Z,16.68
2019-05-02T07:19:51.739Z,16.60
2019-05-02T07:22:21.988Z,16.51
2019-05-02T07:24:51.508Z,16.43
2019-05-02T07:27:21.160Z,16.35
2019-05-02T07:29:52.184Z,16.22
2019-05-02T07:32:24.896Z,16.21
2019-05-02T07:34:53.233Z,16.18
2019-05-02T07:37:22.875Z,16.23
2019-05-02T07:39:52.848Z,16.27
2019-05-02T07:42:22.409Z,16.30
2019-05-02T07:44:51.921Z,16.38
2019-05-02T07:47:21.305Z,16.50
2019-05-02T07:49:50.727Z,16.57
2019-05-02T07:52:20.344Z,16.64
2019-05-02T07:54:49.884Z,16.66
2019-05-02T07:57:19.375Z,16.68
2019-05-02T07:59:49.901Z,16.67
2019-05-02T08:02:20.376Z,16.68
2019-05-02T08:04:50.726Z,16.65
2019-05-02T08:07:25.901Z,16.62
2019-05-02T08:09:54.640Z,16.58
2019-05-02T08:12:24.072Z,16.51
2019-05-02T08:14:53.484Z,16.41
2019-05-02T08:17:22.958Z,16.32
2019-05-02T08:19:52.357Z,16.30
2019-05-02T08:22:21.815Z,16.20
2019-05-02T08:24:51.241Z,16.21
2019-05-02T08:27:39.614Z,16.30
2019-05-02T08:30:19.876Z,16.34
2019-05-02T08:32:49.551Z,16.44
2019-05-02T08:35:18.910Z,16.35
2019-05-02T08:37:48.305Z,16.30
2019-05-02T08:40:17.734Z,16.34
2019-05-02T08:42:47.238Z,16.34
2019-05-02T08:45:16.790Z,16.33
2019-05-02T08:47:46.363Z,16.31
2019-05-02T08:50:16.106Z,16.26
2019-05-02T08:52:47.930Z,16.22
2019-05-02T08:55:18.858Z,16.17
2019-05-02T08:57:48.262Z,16.22
2019-05-02T09:00:18.067Z,16.27
2019-05-02T09:02:47.454Z,16.32
2019-05-02T09:05:18.316Z,16.43
2019-05-02T09:07:47.714Z,16.59
2019-05-02T09:10:17.233Z,16.67
2019-05-02T09:12:46.597Z,16.75
2019-05-02T09:15:17.155Z,16.73
2019-05-02T09:17:54.905Z,16.73
2019-05-02T09:20:20.747Z,16.78
2019-05-02T09:22:52.263Z,16.81
2019-05-02T09:25:21.961Z,16.87
2019-05-02T09:27:52.687Z,16.95
2019-05-02T09:30:25.655Z,17.03
2019-05-02T09:32:57.115Z,17.17
2019-05-02T09:35:25.149Z,17.23
2019-05-02T09:37:56.573Z,17.33
2019-05-02T09:40:25.959Z,17.33
2019-05-02T09:42:58.563Z,17.16
2019-05-02T09:45:37.359Z,17.02
2019-05-02T09:48:08.915Z,16.89
2019-05-02T09:50:38.639Z,16.84
2019-05-02T09:53:14.867Z,16.96
2019-05-02T09:55:43.804Z,17.04
2019-05-02T09:58:14.794Z,17.14
2019-05-02T10:01:05.220Z,17.15
2019-05-02T10:03:34.639Z,17.20
2019-05-02T10:06:08.449Z,17.21
2019-05-02T10:08:38.215Z,17.23
2019-05-02T10:11:06.435Z,17.22
2019-05-02T10:13:35.855Z,17.32
2019-05-02T10:16:05.619Z,17.41
2019-05-02T10:18:35.156Z,17.39
2019-05-02T10:21:07.744Z,17.37
2019-05-02T10:23:36.389Z,17.33
2019-05-02T10:26:06.249Z,17.37
2019-05-02T10:28:35.692Z,17.47
2019-05-02T10:31:05.541Z,17.61
2019-05-02T10:33:37.628Z,17.62
2019-05-02T10:36:11.857Z,17.46
2019-05-02T10:38:39.751Z,17.57
2019-05-02T10:41:12.105Z,17.72
2019-05-02T10:43:42.427Z,17.83
2019-05-02T10:46:37.777Z,17.96
2019-05-02T10:49:13.836Z,17.87
2019-05-02T10:51:49.051Z,17.88
2019-05-02T10:54:14.538Z,17.83
2019-05-02T10:56:43.970Z,17.80
2019-05-02T10:59:13.464Z,17.94
2019-05-02T11:02:02.513Z,17.80
2019-05-02T11:04:36.201Z,17.54
2019-05-02T11:07:05.786Z,17.47
2019-05-02T11:09:35.296Z,17.60
2019-05-02T11:12:07.906Z,17.87
2019-05-02T11:14:56.411Z,17.99
2019-05-02T11:17:32.331Z,17.62
2019-05-02T11:20:05.290Z,17.62
2019-05-02T11:22:34.751Z,17.45
2019-05-02T11:25:04.602Z,17.45
2019-05-02T11:27:34.269Z,17.44
2019-05-02T11:30:04.083Z,17.32
2019-05-02T11:32:33.734Z,17.54
2019-05-02T11:35:03.480Z,17.64
2019-05-02T11:37:33.083Z,17.60
2019-05-02T11:40:06.199Z,17.60
2019-05-02T11:42:33.890Z,17.53
2019-05-02T11:45:03.429Z,17.63
2019-05-02T11:47:33.004Z,17.64
2019-05-02T11:50:02.743Z,17.63
2019-05-02T11:52:37.192Z,17.62
2019-05-02T11:55:03.481Z,17.61
2019-05-02T11:57:33.272Z,17.54
2019-05-02T12:00:05.181Z,17.55
2019-05-02T12:03:02.123Z,17.64
2019-05-02T12:05:39.166Z,17.84
2019-05-02T12:08:09.382Z,17.80
2019-05-02T12:10:39.251Z,18.14
2019-05-02T12:13:11.907Z,18.02
2019-05-02T12:15:43.922Z,17.97
2019-05-02T12:18:12.116Z,18.14
2019-05-02T12:20:42.573Z,18.25
2019-05-02T12:23:16.252Z,18.31
2019-05-02T12:25:46.364Z,18.30
2019-05-02T12:28:16.488Z,17.93
2019-05-02T12:30:46.265Z,17.81
2019-05-02T12:33:15.913Z,17.75
2019-05-02T12:35:45.885Z,17.63
2019-05-02T12:38:16.829Z,17.88
2019-05-02T12:40:46.393Z,17.77
2019-05-02T12:43:15.790Z,17.65
2019-05-02T12:45:48.109Z,17.80
2019-05-02T12:48:17.648Z,17.98
2019-05-02T12:50:47.985Z,18.16
2019-05-02T12:53:18.876Z,18.35
2019-05-02T12:55:48.454Z,17.98
2019-05-02T12:58:18.214Z,17.99
2019-05-02T13:00:47.716Z,18.10
2019-05-02T13:03:36.308Z,18.11
2019-05-02T13:06:06.107Z,18.09
2019-05-02T13:08:48.869Z,18.04
2019-05-02T13:11:46.442Z,17.95
2019-05-02T13:14:19.733Z,18.01
2019-05-02T13:16:53.489Z,17.98
2019-05-02T13:19:36.792Z,17.97
2019-05-02T13:22:06.790Z,17.98
2019-05-02T13:24:42.434Z,18.03
2019-05-02T13:27:14.992Z,18.09
2019-05-02T13:29:44.924Z,18.15
2019-05-02T13:32:33.501Z,18.14
2019-05-02T13:35:32.339Z,18.15
2019-05-02T13:38:05.279Z,17.94
2019-05-02T13:40:41.808Z,17.79
2019-05-02T13:43:12.517Z,17.83
2019-05-02T13:46:08.316Z,17.43
2019-05-02T13:48:37.909Z,17.64
2019-05-02T13:51:12.565Z,17.92
2019-05-02T13:54:02.255Z,17.98
2019-05-02T13:56:52.884Z,18.00
2019-05-02T13:59:23.187Z,17.78
2019-05-02T14:01:54.804Z,17.95
2019-05-02T14:04:27.908Z,18.09
2019-05-02T14:06:58.797Z,17.91
2019-05-02T14:10:01.973Z,17.89
2019-05-02T14:12:45.237Z,17.92
2019-05-02T14:15:22.230Z,17.92
2019-05-02T14:17:53.112Z,17.46
2019-05-02T14:20:22.996Z,17.68
2019-05-02T14:22:54.781Z,17.82
2019-05-02T14:25:24.399Z,17.94
2019-05-02T14:27:55.765Z,18.05
2019-05-02T14:30:37.236Z,17.89
2019-05-02T14:33:08.905Z,18.16
2019-05-02T14:35:38.385Z,18.31
2019-05-02T14:38:08.681Z,18.32
2019-05-02T14:40:46.572Z,18.59
2019-05-02T14:43:38.138Z,18.41
2019-05-02T14:46:06.650Z,18.49
2019-05-02T14:48:45.093Z,18.47
2019-05-02T14:51:16.902Z,18.50
2019-05-02T14:53:43.674Z,18.59
2019-05-02T14:56:37.536Z,18.59
2019-05-02T14:59:09.150Z,18.61
2019-05-02T15:01:42.111Z,18.53
2019-05-02T15:04:12.902Z,18.67
2019-05-02T15:06:47.241Z,19.00
2019-05-02T15:09:22.641Z,19.27
2019-05-02T15:11:58.890Z,19.94
2019-05-02T15:14:35.666Z,20.04
2019-05-02T15:17:08.587Z,20.10
2019-05-02T15:19:42.626Z,19.72
2019-05-02T15:22:12.496Z,19.08
2019-05-02T15:24:43.492Z,19.23
2019-05-02T15:27:17.801Z,19.42
2019-05-02T15:29:46.022Z,19.85
2019-05-02T15:32:41.996Z,19.78
2019-05-02T15:35:31.893Z,19.74
2019-05-02T15:38:06.382Z,19.76
2019-05-02T15:40:49.731Z,19.77
2019-05-02T16:16:47.846Z,20.21
2019-05-02T16:19:44.154Z,20.25
2019-05-02T16:22:38.391Z,20.23
2019-05-02T16:25:42.905Z,19.97
2019-05-02T16:28:15.896Z,19.71
2019-05-02T16:31:17.044Z,19.78
2019-05-02T16:33:42.700Z,19.92
2019-05-02T16:36:26.004Z,19.70
2019-05-02T16:38:56.979Z,19.57
2019-05-02T16:41:33.976Z,19.40
2019-05-02T16:56:42.385Z,19.26
2019-05-02T16:59:12.732Z,19.69
2019-05-02T17:01:52.643Z,19.72
2019-05-02T17:05:12.719Z,19.65
2019-05-02T17:08:44.487Z,19.52
2019-05-02T17:11:39.522Z,19.52
2019-05-02T17:20:33.668Z,19.11
2019-05-02T17:26:13.329Z,19.32
2019-05-02T17:28:47.215Z,18.93
2019-05-02T17:43:03.044Z,18.39
2019-05-02T17:48:10.406Z,18.34
2019-05-02T17:53:53.631Z,18.16
2019-05-02T17:56:59.139Z,17.98
2019-05-02T18:02:55.110Z,17.77
2019-05-02T18:05:26.499Z,17.63
2019-05-02T18:07:54.120Z,17.46
2019-05-02T18:12:59.977Z,17.34
2019-05-02T18:19:01.859Z,17.48
2019-05-02T18:28:21.114Z,17.77
2019-05-02T18:30:57.337Z,17.90
2019-05-02T18:36:57.548Z,17.79
2019-05-02T18:39:34.805Z,17.53
2019-05-02T18:42:26.650Z,17.39
2019-05-02T18:45:25.275Z,17.24
2019-05-02T18:48:21.854Z,17.21
2019-05-02T18:51:21.821Z,17.16
2019-05-02T18:54:07.521Z,17.08
2019-05-02T18:56:41.141Z,17.05
2019-05-02T18:59:05.416Z,17.00
2019-05-02T19:01:38.911Z,17.11
2019-05-02T19:04:13.113Z,17.39
2019-05-02T19:06:53.024Z,17.68
2019-05-02T19:12:34.024Z,17.72
2019-05-02T19:15:21.520Z,17.61
2019-05-02T19:17:52.992Z,17.49
2019-05-02T19:32:57.840Z,16.65
2019-05-02T19:41:14.202Z,16.27
2019-05-02T20:25:37.493Z,15.75
2019-05-02T20:28:03.391Z,15.78
2019-05-02T20:30:33.150Z,15.79
2019-05-02T20:33:05.222Z,15.86
2019-05-02T20:35:34.232Z,15.84
2019-05-02T20:38:24.257Z,15.80
2019-05-02T20:40:55.946Z,15.82
2019-05-02T20:43:44.641Z,15.76
2019-05-02T20:46:14.574Z,15.75
2019-05-02T20:48:46.798Z,15.78
2019-05-02T20:51:53.503Z,15.75
2019-05-02T20:54:28.300Z,15.70
2019-05-02T20:57:03.398Z,15.73
2019-05-02T20:59:55.527Z,15.73
2019-05-02T21:02:51.797Z,15.67
2019-05-02T21:05:42.782Z,15.65
2019-05-02T21:08:38.478Z,15.62
2019-05-02T21:11:21.132Z,15.56
2019-05-02T21:13:52.497Z,15.50
2019-05-02T21:16:46.446Z,15.47
2019-05-02T21:22:49.742Z,15.43
2019-05-02T21:25:28.849Z,15.37
2019-05-02T21:28:27.774Z,15.34
2019-05-02T21:31:02.795Z,15.26
2019-05-02T21:33:42.757Z,15.28
2019-05-02T21:36:16.098Z,15.19
2019-05-02T21:38:53.663Z,15.16
2019-05-02T21:41:26.001Z,15.16
2019-05-02T21:43:56.838Z,15.15
2019-05-02T21:46:29.161Z,15.18
2019-05-02T21:49:00.039Z,15.19
2019-05-02T21:51:48.733Z,15.17
2019-05-02T21:54:53.287Z,15.18
2019-05-02T21:57:32.202Z,15.19
2019-05-02T22:01:08.738Z,15.11
2019-05-02T22:09:58.294Z,15.28
2019-05-02T22:13:04.007Z,15.37
2019-05-02T22:18:49.469Z,15.46
2019-05-02T22:21:22.875Z,15.55
2019-05-02T22:24:08.131Z,15.61
2019-05-02T22:26:29.503Z,15.64
2019-05-02T22:29:02.186Z,15.64
2019-05-02T22:32:47.859Z,15.62
2019-05-02T22:35:18.841Z,15.63
2019-05-02T22:41:48.725Z,15.54
2019-05-02T22:44:53.792Z,15.49
2019-05-02T22:47:47.234Z,15.49
2019-05-02T22:50:17.872Z,15.47
2019-05-02T22:52:47.464Z,15.50
2019-05-02T22:55:19.289Z,15.52
2019-05-02T22:57:48.831Z,15.57
2019-05-02T23:00:18.748Z,15.60
2019-05-02T23:02:48.309Z,15.68
2019-05-02T23:05:17.946Z,15.75
2019-05-02T23:07:47.500Z,15.80
2019-05-02T23:10:17.358Z,15.84
2019-05-02T23:12:47.288Z,15.85
2019-05-02T23:15:16.986Z,15.87
2019-05-02T23:17:46.666Z,15.86
2019-05-02T23:20:16.364Z,15.91
2019-05-02T23:22:45.859Z,15.95
2019-05-02T23:25:42.230Z,15.99
2019-05-02T23:28:18.471Z,16.00
2019-05-02T23:30:48.174Z,15.99
2019-05-02T23:33:17.753Z,16.00
2019-05-02T23:35:47.288Z,16.03
2019-05-02T23:38:18.767Z,16.05
2019-05-02T23:40:48.846Z,16.03
2019-05-02T23:43:18.570Z,16.01
2019-05-02T23:45:48.225Z,15.99
2019-05-02T23:48:17.946Z,15.96
2019-05-02T23:50:47.766Z,15.95
2019-05-02T23:53:17.430Z,15.92
2019-05-02T23:55:47.181Z,15.93
2019-05-02T23:58:16.853Z,15.95
